createdAt,value
2019-02-05T00:04:50.545Z,7.90
2019-02-05T00:09:53.343Z,8.30
2019-02-05T00:14:55.859Z,8.07
2019-02-05T00:19:58.386Z,8.13
2019-02-05T00:25:00.704Z,7.67
2019-02-05T00:30:05.035Z,7.87
2019-02-05T00:35:09.308Z,7.60
2019-02-05T00:40:12.515Z,7.10
2019-02-05T00:45:15.801Z,7.67
2019-02-05T00:50:18.909Z,7.33
2019-02-05T00:55:21.500Z,7.73
2019-02-05T01:00:27.238Z,8.10
2019-02-05T01:05:29.896Z,7.00
2019-02-05T01:10:32.134Z,7.40
2019-02-05T01:15:34.413Z,7.53
2019-02-05T01:20:37.748Z,7.53
2019-02-05T01:25:40.961Z,7.27
2019-02-05T01:30:43.460Z,7.50
2019-02-05T01:35:45.991Z,6.70
2019-02-05T01:40:48.554Z,7.50
2019-02-05T01:45:50.759Z,6.90
2019-02-05T01:50:52.913Z,7.13
2019-02-05T01:55:55.462Z,7.10
2019-02-05T02:00:58.258Z,7.73
2019-02-05T02:06:01.215Z,6.77
2019-02-05T02:11:03.770Z,6.57
2019-02-05T02:16:06.207Z,8.07
2019-02-05T02:21:09.595Z,7.20
2019-02-05T02:26:11.894Z,7.03
2019-02-05T02:31:14.880Z,7.07
2019-02-05T02:36:17.871Z,7.63
2019-02-05T02:41:20.050Z,7.00
2019-02-05T02:46:22.577Z,6.23
2019-02-05T02:51:25.106Z,6.80
2019-02-05T02:56:28.623Z,6.77
2019-02-05T03:01:31.472Z,6.73
2019-02-05T03:06:34.573Z,6.97
2019-02-05T03:11:38.037Z,6.97
2019-02-05T03:16:40.465Z,6.90
2019-02-05T03:21:42.612Z,7.00
2019-02-05T03:26:45.464Z,7.20
2019-02-05T03:31:47.974Z,7.10
2019-02-05T03:36:51.243Z,7.07
2019-02-05T03:41:53.708Z,6.53
2019-02-05T03:46:56.685Z,6.83
2019-02-05T03:52:13.503Z,7.23
2019-02-05T03:58:02.299Z,6.50
2019-02-05T04:03:31.747Z,6.83
2019-02-05T04:09:18.812Z,6.97
2019-02-05T04:15:11.177Z,6.07
2019-02-05T04:21:07.540Z,7.70
2019-02-05T04:26:58.072Z,7.10
2019-02-05T04:32:38.802Z,6.87
2019-02-05T04:38:38.959Z,7.83
2019-02-05T04:44:23.530Z,7.57
2019-02-05T04:50:07.741Z,8.13
2019-02-05T04:56:13.458Z,9.00
2019-02-05T05:01:47.010Z,8.20
2019-02-05T05:07:23.914Z,8.00
2019-02-05T05:12:29.075Z,8.37
2019-02-05T05:17:31.990Z,7.77
2019-02-05T05:22:34.203Z,8.27
2019-02-05T05:27:37.797Z,8.30
2019-02-05T05:32:40.584Z,8.30
2019-02-05T05:37:43.104Z,8.67
2019-02-05T05:42:46.304Z,8.30
2019-02-05T05:47:48.482Z,7.87
2019-02-05T05:52:51.463Z,7.30
2019-02-05T05:57:54.311Z,7.90
2019-02-05T06:02:57.416Z,7.80
2019-02-05T06:07:59.982Z,7.47
2019-02-05T06:13:02.665Z,8.17
2019-02-05T06:18:05.895Z,7.50
2019-02-05T06:23:08.661Z,8.00
2019-02-05T06:28:10.825Z,7.00
2019-02-05T06:33:12.971Z,7.27
2019-02-05T06:38:15.961Z,7.63
2019-02-05T06:43:18.125Z,7.37
2019-02-05T06:48:20.570Z,7.40
2019-02-05T06:53:23.934Z,8.23
2019-02-05T06:58:26.256Z,7.77
2019-02-05T07:03:28.921Z,8.23
2019-02-05T07:08:31.220Z,8.13
2019-02-05T07:13:33.453Z,9.67
2019-02-05T07:18:36.067Z,9.57
2019-02-05T07:23:38.255Z,9.17
2019-02-05T07:28:40.567Z,9.13
2019-02-05T07:33:43.039Z,10.00
2019-02-05T07:38:45.379Z,8.40
2019-02-05T07:43:48.027Z,9.27
2019-02-05T07:48:50.418Z,9.10
2019-02-05T07:53:52.911Z,9.53
2019-02-05T07:58:55.183Z,9.13
2019-02-05T08:03:57.988Z,9.20
2019-02-05T08:09:00.343Z,10.90
2019-02-05T08:14:06.188Z,9.57
2019-02-05T08:19:08.504Z,9.47
2019-02-05T08:24:11.021Z,10.20
2019-02-05T08:29:21.309Z,9.83
2019-02-05T08:34:18.216Z,10.27
2019-02-05T08:39:20.385Z,10.27
2019-02-05T08:44:22.608Z,10.00
2019-02-05T08:49:24.815Z,10.03
2019-02-05T08:54:28.142Z,11.07
2019-02-05T08:59:30.751Z,11.40
2019-02-05T09:04:33.422Z,10.20
2019-02-05T09:09:35.695Z,10.07
2019-02-05T09:14:38.599Z,11.80
2019-02-05T09:19:41.415Z,11.13
2019-02-05T09:24:45.058Z,11.20
2019-02-05T09:29:47.360Z,11.33
2019-02-05T09:34:49.555Z,11.00
2019-02-05T09:39:51.733Z,10.53
2019-02-05T09:44:53.917Z,11.70
2019-02-05T09:49:56.186Z,10.90
2019-02-05T09:54:58.779Z,10.90
2019-02-05T10:00:02.044Z,11.33
2019-02-05T10:05:07.917Z,11.47
2019-02-05T10:10:13.262Z,11.70
2019-02-05T10:15:19.371Z,11.47
2019-02-05T10:20:23.372Z,12.23
2019-02-05T10:25:25.855Z,12.70
2019-02-05T10:30:40.637Z,11.87
2019-02-05T10:35:43.195Z,10.87
2019-02-05T10:40:45.537Z,12.13
2019-02-05T10:45:47.949Z,11.77
2019-02-05T10:50:50.542Z,12.00
2019-02-05T10:55:53.428Z,12.37
2019-02-05T11:00:55.583Z,11.63
2019-02-05T11:05:58.415Z,11.80
2019-02-05T11:11:01.439Z,11.37
2019-02-05T11:16:05.045Z,12.03
2019-02-05T11:21:07.235Z,11.77
2019-02-05T11:26:09.808Z,12.60
2019-02-05T11:31:12.418Z,11.77
2019-02-05T11:36:14.668Z,12.50
2019-02-05T11:41:17.799Z,12.93
2019-02-05T11:46:20.684Z,12.93
2019-02-05T11:51:22.877Z,13.03
2019-02-05T11:56:28.122Z,12.17
2019-02-05T12:01:38.845Z,12.17
2019-02-05T12:06:37.858Z,12.97
2019-02-05T12:11:40.700Z,12.67
2019-02-05T12:16:43.406Z,12.80
2019-02-05T12:21:46.527Z,13.40
2019-02-05T12:26:48.856Z,12.97
2019-02-05T12:31:51.129Z,13.03
2019-02-05T12:36:53.299Z,12.83
2019-02-05T12:41:55.920Z,12.63
2019-02-05T12:46:58.308Z,12.60
2019-02-05T12:52:00.756Z,12.87
2019-02-05T12:57:03.475Z,13.43
2019-02-05T13:02:05.985Z,13.40
2019-02-05T13:07:09.073Z,12.97
2019-02-05T13:12:11.849Z,12.57
2019-02-05T13:17:14.075Z,12.67
2019-02-05T13:22:16.934Z,13.33
2019-02-05T13:27:19.898Z,13.77
2019-02-05T13:32:23.393Z,12.70
2019-02-05T13:37:26.985Z,13.23
2019-02-05T13:42:29.835Z,13.33
2019-02-05T13:47:33.927Z,14.03
2019-02-05T13:52:38.978Z,13.33
2019-02-05T13:57:42.177Z,13.90
2019-02-05T14:02:44.548Z,14.20
2019-02-05T14:07:47.560Z,14.10
2019-02-05T14:12:50.488Z,13.60
2019-02-05T14:17:53.600Z,13.60
2019-02-05T14:22:56.680Z,13.17
2019-02-05T14:27:59.411Z,13.33
2019-02-05T14:33:02.220Z,13.57
2019-02-05T14:38:07.195Z,13.43
2019-02-05T14:43:10.837Z,14.43
2019-02-05T14:48:14.243Z,14.03
2019-02-05T14:53:16.516Z,13.70
2019-02-05T14:58:19.445Z,13.90
2019-02-05T15:03:22.658Z,13.27
2019-02-05T15:08:25.151Z,13.83
2019-02-05T15:13:27.345Z,13.90
2019-02-05T15:18:30.641Z,13.97
2019-02-05T15:23:33.414Z,14.00
2019-02-05T15:28:36.767Z,14.13
2019-02-05T15:33:44.730Z,14.00
2019-02-05T15:38:47.887Z,13.13
2019-02-05T15:43:51.793Z,13.57
2019-02-05T15:48:54.083Z,13.27
2019-02-05T15:53:58.639Z,14.17
2019-02-05T15:59:02.139Z,13.87
2019-02-05T16:04:05.536Z,13.70
2019-02-05T16:09:10.322Z,14.10
2019-02-05T16:14:13.145Z,14.40
2019-02-05T16:19:15.314Z,15.37
2019-02-05T16:24:17.566Z,14.67
2019-02-05T16:29:21.389Z,15.07
2019-02-05T16:34:23.571Z,14.43
2019-02-05T16:39:26.186Z,13.97
2019-02-05T16:44:28.409Z,15.37
2019-02-05T16:49:30.725Z,15.80
2019-02-05T16:54:32.877Z,15.70
2019-02-05T16:59:35.107Z,14.67
2019-02-05T17:04:37.353Z,14.23
2019-02-05T17:09:40.086Z,15.73
2019-02-05T17:14:42.414Z,14.37
2019-02-05T17:19:44.591Z,15.03
2019-02-05T17:24:47.245Z,12.43
2019-02-05T17:29:50.459Z,13.10
2019-02-05T17:34:52.929Z,12.93
2019-02-05T17:39:55.116Z,12.27
2019-02-05T17:44:57.338Z,12.17
2019-02-05T17:49:59.524Z,11.20
2019-02-05T17:55:01.996Z,12.17
2019-02-05T18:00:10.865Z,10.87
2019-02-05T18:05:15.009Z,11.13
2019-02-05T18:10:20.792Z,12.47
2019-02-05T18:15:27.239Z,12.27
2019-02-05T18:20:29.531Z,13.10
2019-02-05T18:25:31.891Z,12.43
2019-02-05T18:30:35.213Z,12.47
2019-02-05T18:35:38.129Z,12.80
2019-02-05T18:40:41.536Z,12.43
2019-02-05T18:45:43.727Z,12.57
2019-02-05T18:50:46.302Z,12.13
2019-02-05T18:55:48.610Z,12.53
2019-02-05T19:00:51.011Z,11.90
2019-02-05T19:05:53.239Z,12.30
2019-02-05T19:10:55.358Z,12.17
2019-02-05T19:15:57.848Z,11.10
2019-02-05T19:21:00.245Z,12.50
2019-02-05T19:26:12.345Z,14.13
2019-02-05T19:31:36.715Z,13.10
2019-02-05T19:36:39.508Z,13.97
2019-02-05T19:41:41.988Z,14.27
2019-02-05T19:46:56.051Z,13.97
2019-02-05T19:51:59.026Z,14.30
2019-02-05T19:57:01.721Z,14.63
2019-02-05T20:02:04.422Z,13.87
2019-02-05T20:07:07.087Z,13.93
2019-02-05T20:12:09.893Z,13.17
2019-02-05T20:17:12.838Z,14.97
2019-02-05T20:22:15.299Z,14.27
2019-02-05T20:27:17.551Z,13.80
2019-02-05T20:32:20.103Z,12.90
2019-02-05T20:37:22.864Z,13.63
2019-02-05T20:42:26.327Z,12.53
2019-02-05T20:47:28.468Z,14.40
2019-02-05T20:52:30.973Z,13.70
2019-02-05T20:57:33.144Z,13.50
2019-02-05T21:02:35.752Z,13.27
2019-02-05T21:07:38.466Z,13.57
2019-02-05T21:12:41.070Z,14.70
2019-02-05T21:17:43.405Z,14.00
2019-02-05T21:22:47.855Z,14.20
2019-02-05T21:27:50.544Z,14.73
2019-02-05T21:32:54.382Z,14.77
2019-02-05T21:37:57.266Z,15.20
2019-02-05T21:42:59.854Z,14.03
2019-02-05T21:48:02.351Z,13.90
2019-02-05T21:53:04.853Z,14.03
2019-02-05T21:58:07.118Z,15.20
2019-02-05T22:03:09.744Z,15.13
2019-02-05T22:08:12.421Z,14.60
2019-02-05T22:13:15.128Z,15.87
2019-02-05T22:18:17.346Z,14.03
2019-02-05T22:23:20.087Z,15.60
2019-02-05T22:28:22.226Z,14.93
2019-02-05T22:33:27.991Z,15.80
2019-02-05T22:38:29.261Z,15.50
2019-02-05T22:43:31.549Z,15.57
2019-02-05T22:48:33.725Z,15.03
2019-02-05T22:53:36.289Z,14.90
2019-02-05T22:58:39.431Z,15.13
2019-02-05T23:03:47.647Z,16.50
2019-02-05T23:08:51.201Z,15.50
2019-02-05T23:13:54.367Z,15.17
2019-02-05T23:18:57.564Z,15.20
2019-02-05T23:23:59.956Z,16.00
2019-02-05T23:29:02.164Z,15.93
2019-02-05T23:34:05.143Z,14.77
2019-02-05T23:39:08.636Z,16.23
2019-02-05T23:44:12.789Z,15.50
2019-02-05T23:49:15.296Z,16.17
2019-02-05T23:54:18.063Z,15.63
2019-02-05T23:59:20.852Z,15.27
